createdAt,value
2022-12-11T08:57:05.798Z,21.66
2022-12-11T08:58:05.673Z,21.71
2022-12-11T08:59:05.593Z,21.75
2022-12-11T09:00:05.472Z,21.80
2022-12-11T09:01:05.483Z,21.84
2022-12-11T09:02:05.238Z,21.88
2022-12-11T09:03:08.478Z,21.92
2022-12-11T09:04:06.011Z,21.95
2022-12-11T09:05:04.855Z,22.03
2022-12-11T09:06:04.780Z,22.09
2022-12-11T09:07:05.206Z,22.15
2022-12-11T09:08:05.408Z,22.20
2022-12-11T09:09:04.837Z,22.22
2022-12-11T09:10:04.534Z,22.25
2022-12-11T09:11:04.469Z,22.28
2022-12-11T09:12:04.889Z,22.32
2022-12-11T09:13:03.762Z,22.29
2022-12-11T09:14:07.534Z,22.26
2022-12-11T09:15:03.517Z,22.23
2022-12-11T09:16:03.549Z,22.21
2022-12-11T09:17:03.244Z,22.20
2022-12-11T09:18:03.113Z,22.18
2022-12-11T09:19:02.955Z,22.17
2022-12-11T09:20:02.870Z,22.16
2022-12-11T09:21:02.711Z,22.14
2022-12-11T09:22:02.565Z,22.13
2022-12-11T09:23:02.428Z,22.13
2022-12-11T09:24:02.435Z,22.11
2022-12-11T09:25:02.143Z,22.10
2022-12-11T09:26:02.034Z,22.09
2022-12-11T09:27:01.886Z,22.08
2022-12-11T09:28:01.793Z,22.08
2022-12-11T09:29:01.611Z,22.08
2022-12-11T09:30:01.503Z,22.06
2022-12-11T09:31:01.404Z,22.11
2022-12-11T09:32:01.276Z,22.08
2022-12-11T09:33:01.238Z,22.04
2022-12-11T09:34:01.060Z,22.01
2022-12-11T09:35:00.832Z,22.02
2022-12-11T09:36:00.730Z,22.06
2022-12-11T09:37:00.597Z,22.09
2022-12-11T09:38:00.477Z,22.09
2022-12-11T09:39:00.314Z,22.09
2022-12-11T09:40:04.146Z,22.10
2022-12-11T09:41:01.098Z,22.13
2022-12-11T09:41:59.954Z,22.13
2022-12-11T09:42:59.932Z,22.08
2022-12-11T09:43:59.662Z,22.07
2022-12-11T09:44:59.585Z,22.07
2022-12-11T09:45:59.497Z,22.05
2022-12-11T09:46:59.287Z,22.01
2022-12-11T09:47:59.149Z,21.98
2022-12-11T09:48:59.045Z,21.97
2022-12-11T09:49:58.900Z,21.95
2022-12-11T09:50:58.807Z,21.95
2022-12-11T09:51:59.298Z,21.95
2022-12-11T09:52:58.548Z,21.97
2022-12-11T09:53:58.401Z,21.97
2022-12-11T09:54:58.256Z,21.98
2022-12-11T09:55:58.180Z,21.98
2022-12-11T09:56:58.068Z,22.00
2022-12-11T09:57:57.870Z,21.99
2022-12-11T09:58:57.780Z,21.99
2022-12-11T10:00:04.252Z,21.96
2022-12-11T10:00:58.522Z,21.95
2022-12-11T10:01:57.392Z,21.95
2022-12-11T10:02:57.416Z,21.93
2022-12-11T10:03:57.113Z,21.90
2022-12-11T10:04:57.011Z,21.89
2022-12-11T10:06:01.132Z,21.89
2022-12-11T10:06:57.775Z,21.90
2022-12-11T10:07:56.702Z,21.91
2022-12-11T10:08:56.501Z,21.93
2022-12-11T10:09:56.359Z,21.94
2022-12-11T10:10:56.247Z,21.92
2022-12-11T10:11:57.043Z,21.91
2022-12-11T10:12:55.979Z,21.91
2022-12-11T10:13:55.840Z,21.90
2022-12-11T10:14:55.798Z,21.87
2022-12-11T10:15:55.648Z,21.82
2022-12-11T10:16:55.485Z,21.78
2022-12-11T10:17:57.547Z,21.74
2022-12-11T10:18:56.231Z,21.69
2022-12-11T10:19:55.099Z,21.68
2022-12-11T10:20:54.960Z,21.68
2022-12-11T10:21:54.844Z,21.68
2022-12-11T10:22:54.729Z,21.69
2022-12-11T10:23:54.614Z,21.71
2022-12-11T10:25:11.584Z,21.73
2022-12-11T10:25:55.376Z,21.72
2022-12-11T10:26:54.199Z,21.69
2022-12-11T10:27:54.111Z,21.69
2022-12-11T10:28:53.951Z,21.68
2022-12-11T10:29:53.874Z,21.66
2022-12-11T10:30:53.820Z,21.66
2022-12-11T10:31:53.642Z,21.64
2022-12-11T10:32:53.477Z,21.64
2022-12-11T10:33:53.399Z,21.59
2022-12-11T10:34:53.215Z,21.60
2022-12-11T10:35:53.128Z,21.64
2022-12-11T10:36:58.793Z,21.61
2022-12-11T10:37:53.910Z,21.56
2022-12-11T10:38:52.744Z,21.57
2022-12-11T10:39:52.632Z,21.60
2022-12-11T10:40:52.509Z,21.62
2022-12-11T10:41:52.408Z,21.67
2022-12-11T10:42:52.250Z,21.68
2022-12-11T10:43:52.239Z,21.68
2022-12-11T10:44:52.062Z,21.66
2022-12-11T10:45:51.931Z,21.62
2022-12-11T10:46:51.843Z,21.62
2022-12-11T10:47:51.879Z,21.62
2022-12-11T10:48:51.554Z,21.64
2022-12-11T10:49:51.446Z,21.65
2022-12-11T10:50:51.298Z,21.63
2022-12-11T10:51:51.215Z,21.64
2022-12-11T10:52:51.058Z,21.65
2022-12-11T10:53:51.016Z,21.62
2022-12-11T10:54:50.862Z,21.61
2022-12-11T10:55:50.727Z,21.62
2022-12-11T10:56:50.584Z,21.62
2022-12-11T10:57:50.481Z,21.62
2022-12-11T10:58:50.302Z,21.64
2022-12-11T10:59:50.274Z,21.62
2022-12-11T11:00:50.115Z,21.61
2022-12-11T11:01:50.039Z,21.58
2022-12-11T11:02:50.032Z,21.58
2022-12-11T11:03:49.724Z,21.58
2022-12-11T11:04:49.588Z,21.55
2022-12-11T11:05:49.784Z,21.57
2022-12-11T11:06:49.314Z,21.54
2022-12-11T11:07:49.404Z,21.54
2022-12-11T11:08:49.084Z,21.56
2022-12-11T11:09:48.971Z,21.57
2022-12-11T11:10:48.849Z,21.57
2022-12-11T11:11:48.739Z,21.55
2022-12-11T11:12:48.586Z,21.57
2022-12-11T11:13:48.502Z,21.55
2022-12-11T11:14:48.315Z,21.53
2022-12-11T11:15:48.317Z,21.53
2022-12-11T11:16:48.070Z,21.52
2022-12-11T11:17:54.657Z,21.52
2022-12-11T11:18:48.833Z,21.50
2022-12-11T11:19:47.878Z,21.49
2022-12-11T11:20:47.599Z,21.49
2022-12-11T11:21:47.469Z,21.49
2022-12-11T11:22:47.337Z,21.53
2022-12-11T11:23:50.611Z,21.51
2022-12-11T11:24:48.092Z,21.51
2022-12-11T11:25:46.942Z,21.52
2022-12-11T11:27:12.124Z,21.52
2022-12-11T11:27:47.703Z,21.53
2022-12-11T11:28:46.523Z,21.51
2022-12-11T11:29:51.544Z,21.48
2022-12-11T11:30:47.427Z,21.46
2022-12-11T11:31:46.175Z,21.49
2022-12-11T11:32:46.034Z,21.51
2022-12-11T11:33:45.925Z,21.52
2022-12-11T11:34:45.795Z,21.51
2022-12-11T11:35:46.001Z,21.48
2022-12-11T11:36:45.524Z,21.51
2022-12-11T11:37:45.387Z,21.52
2022-12-11T11:38:45.289Z,21.52
2022-12-11T11:39:45.146Z,21.52
2022-12-11T11:40:45.032Z,21.54
2022-12-11T11:41:44.852Z,21.55
2022-12-11T11:42:44.778Z,21.56
2022-12-11T11:43:44.614Z,21.56
2022-12-11T11:44:44.514Z,21.58
2022-12-11T11:45:44.908Z,21.58
2022-12-11T11:46:45.678Z,21.60
2022-12-11T11:47:44.607Z,21.58
2022-12-11T11:48:44.880Z,21.53
2022-12-11T11:49:44.356Z,21.54
2022-12-11T11:50:44.566Z,21.55
2022-12-11T11:51:44.199Z,21.59
2022-12-11T11:52:43.479Z,21.58
2022-12-11T11:53:43.331Z,21.55
2022-12-11T11:54:43.242Z,21.52
2022-12-11T11:55:43.068Z,21.48
2022-12-11T11:56:42.939Z,21.49
2022-12-11T11:57:42.795Z,21.49
2022-12-11T11:58:42.714Z,21.49
2022-12-11T11:59:42.562Z,21.49
2022-12-11T12:00:42.466Z,21.47
2022-12-11T12:01:42.280Z,21.46
2022-12-11T12:02:42.248Z,21.45
2022-12-11T12:03:42.030Z,21.41
2022-12-11T12:04:41.927Z,21.40
2022-12-11T12:05:41.776Z,21.40
2022-12-11T12:06:46.024Z,21.44
2022-12-11T12:07:42.572Z,21.44
2022-12-11T12:08:41.421Z,21.42
2022-12-11T12:09:41.319Z,21.42
2022-12-11T12:10:41.146Z,21.40
2022-12-11T12:11:41.036Z,21.42
2022-12-11T12:12:40.927Z,21.44
2022-12-11T12:13:52.719Z,21.43
2022-12-11T12:14:52.152Z,21.42
2022-12-11T12:15:41.531Z,21.42
2022-12-11T12:16:55.887Z,21.42
2022-12-11T12:17:41.340Z,21.41
2022-12-11T12:18:40.170Z,21.42
2022-12-11T12:19:40.044Z,21.41
2022-12-11T12:20:39.915Z,21.42
2022-12-11T12:21:39.802Z,21.41
2022-12-11T12:22:39.660Z,21.40
2022-12-11T12:23:39.562Z,21.40
2022-12-11T12:24:39.430Z,21.38
2022-12-11T12:25:39.324Z,21.38
2022-12-11T12:26:39.158Z,21.38
2022-12-11T12:27:54.524Z,21.38
2022-12-11T12:28:39.985Z,21.37
2022-12-11T12:29:38.801Z,21.38
2022-12-11T12:30:38.704Z,21.37
2022-12-11T12:31:38.629Z,21.37
2022-12-11T12:32:38.492Z,21.36
2022-12-11T12:33:38.339Z,21.36
2022-12-11T12:34:38.229Z,21.36
2022-12-11T12:35:38.077Z,21.36
2022-12-11T12:36:38.016Z,21.34
2022-12-11T12:37:37.918Z,21.32
2022-12-11T12:38:37.740Z,21.34
2022-12-11T12:39:37.620Z,21.35
2022-12-11T12:40:37.520Z,21.34
2022-12-11T12:41:37.355Z,21.32
2022-12-11T12:42:37.278Z,21.31
2022-12-11T12:43:37.170Z,21.31
2022-12-11T12:44:37.105Z,21.30
2022-12-11T12:45:36.987Z,21.30
2022-12-11T12:46:36.876Z,21.31
2022-12-11T12:47:36.652Z,21.30
2022-12-11T12:48:36.567Z,21.30
2022-12-11T12:49:36.434Z,21.29
2022-12-11T12:50:36.358Z,21.30
2022-12-11T12:51:36.167Z,21.30
2022-12-11T12:52:36.472Z,21.28
2022-12-11T12:53:35.996Z,21.30
2022-12-11T12:54:35.876Z,21.29
2022-12-11T12:55:35.699Z,21.29
2022-12-11T12:56:35.790Z,21.28
2022-12-11T12:57:36.214Z,21.28
2022-12-11T12:58:35.431Z,21.28
2022-12-11T12:59:35.256Z,21.28
2022-12-11T13:00:35.171Z,21.28
2022-12-11T13:01:35.691Z,21.27
2022-12-11T13:02:34.957Z,21.27
2022-12-11T13:03:34.759Z,21.27
2022-12-11T13:04:54.892Z,21.27
2022-12-11T13:05:35.533Z,21.28
2022-12-11T13:06:34.441Z,21.27
2022-12-11T13:07:34.304Z,21.27
2022-12-11T13:08:34.299Z,21.26
2022-12-11T13:09:34.040Z,21.26
2022-12-11T13:10:34.014Z,21.24
2022-12-11T13:11:33.812Z,21.24
2022-12-11T13:12:33.666Z,21.24
2022-12-11T13:13:33.563Z,21.23
2022-12-11T13:14:33.445Z,21.23
2022-12-11T13:15:33.380Z,21.23
2022-12-11T13:16:33.251Z,21.22
2022-12-11T13:17:33.116Z,21.23
2022-12-11T13:18:32.951Z,21.22
2022-12-11T13:19:36.460Z,21.22
2022-12-11T13:20:33.806Z,21.22
2022-12-11T13:21:32.591Z,21.22
2022-12-11T13:22:32.506Z,21.22
2022-12-11T13:23:32.350Z,21.22
2022-12-11T13:24:32.309Z,21.23
2022-12-11T13:25:32.116Z,21.24
2022-12-11T13:26:32.036Z,21.22
2022-12-11T13:27:31.869Z,21.21
2022-12-11T13:28:31.915Z,21.19
2022-12-11T13:29:31.664Z,21.20
2022-12-11T13:30:31.569Z,21.19
2022-12-11T13:31:31.440Z,21.19
2022-12-11T13:32:31.362Z,21.19
2022-12-11T13:33:31.166Z,21.19
2022-12-11T13:34:31.087Z,21.18
2022-12-11T13:35:30.940Z,21.14
2022-12-11T13:36:31.122Z,21.13
2022-12-11T13:37:30.706Z,21.12
2022-12-11T13:38:30.628Z,21.12
2022-12-11T13:39:30.461Z,21.15
2022-12-11T13:40:30.378Z,21.14
2022-12-11T13:41:30.225Z,21.12
2022-12-11T13:42:30.131Z,21.03
2022-12-11T13:43:30.042Z,20.74
2022-12-11T13:44:30.398Z,20.07
2022-12-11T13:45:29.834Z,19.25
2022-12-11T13:46:30.273Z,18.65
2022-12-11T13:47:29.569Z,18.30
2022-12-11T13:48:29.516Z,18.23
2022-12-11T13:49:29.802Z,18.45
2022-12-11T13:50:29.350Z,18.68
2022-12-11T13:51:29.226Z,18.93
2022-12-11T13:52:29.185Z,19.15
2022-12-11T13:53:29.031Z,19.32
2022-12-11T13:54:28.978Z,19.51
2022-12-11T13:55:28.841Z,19.65
2022-12-11T13:56:28.793Z,19.79
2022-12-11T13:57:28.654Z,19.90
2022-12-11T13:58:28.572Z,20.03
2022-12-11T13:59:28.432Z,20.16
2022-12-11T14:00:28.328Z,20.29
2022-12-11T14:01:28.230Z,20.36
2022-12-11T14:02:28.175Z,20.45
2022-12-11T14:03:27.992Z,20.53
2022-12-11T14:04:27.890Z,20.59
2022-12-11T14:05:27.734Z,20.60
2022-12-11T14:06:27.718Z,20.61
2022-12-11T14:07:27.529Z,20.63
2022-12-11T14:08:27.478Z,20.66
2022-12-11T14:09:27.262Z,20.70
2022-12-11T14:10:27.201Z,20.73
2022-12-11T14:11:27.071Z,20.76
2022-12-11T14:12:26.952Z,20.81
2022-12-11T14:13:26.798Z,20.86
2022-12-11T14:14:26.728Z,20.89
2022-12-11T14:15:26.556Z,20.92
2022-12-11T14:16:26.597Z,20.96
2022-12-11T14:17:26.323Z,21.01
2022-12-11T14:18:26.236Z,21.05
2022-12-11T14:19:26.082Z,21.10
2022-12-11T14:20:26.006Z,21.14
2022-12-11T14:21:25.817Z,21.19
2022-12-11T14:22:25.731Z,21.24
2022-12-11T14:23:25.547Z,21.30
2022-12-11T14:24:25.492Z,21.35
2022-12-11T14:25:25.335Z,21.41
2022-12-11T14:26:25.204Z,21.46
2022-12-11T14:27:25.131Z,21.51
2022-12-11T14:28:25.041Z,21.55
2022-12-11T14:29:24.881Z,21.61
2022-12-11T14:30:24.920Z,21.65
2022-12-11T14:31:24.541Z,21.68
2022-12-11T14:32:24.449Z,21.72
2022-12-11T14:33:24.306Z,21.73
2022-12-11T14:34:24.166Z,21.79
2022-12-11T14:35:23.966Z,21.83
2022-12-11T14:36:23.923Z,21.86
2022-12-11T14:37:23.736Z,21.90
2022-12-11T14:38:23.605Z,21.92
2022-12-11T14:39:23.435Z,21.92
2022-12-11T14:40:23.378Z,21.93
2022-12-11T14:41:23.318Z,21.94
2022-12-11T14:42:23.077Z,21.95
2022-12-11T14:43:22.923Z,21.99
2022-12-11T14:44:22.878Z,21.97
2022-12-11T14:45:22.675Z,21.95
2022-12-11T14:46:22.668Z,21.93
2022-12-11T14:47:22.374Z,21.91
2022-12-11T14:48:22.315Z,21.88
2022-12-11T14:49:22.115Z,21.87
2022-12-11T14:50:22.033Z,21.86
2022-12-11T14:51:21.867Z,21.84
2022-12-11T14:52:21.745Z,21.84
2022-12-11T14:53:21.578Z,21.83
2022-12-11T14:54:21.549Z,21.82
2022-12-11T14:55:21.358Z,21.82
2022-12-11T14:56:21.268Z,21.80
2022-12-11T14:57:21.070Z,21.81
2022-12-11T14:58:20.976Z,21.79
2022-12-11T14:59:20.824Z,21.79
2022-12-11T15:00:20.717Z,21.77
2022-12-11T15:01:20.607Z,21.77
2022-12-11T15:02:20.561Z,21.76
2022-12-11T15:03:20.342Z,21.75
2022-12-11T15:04:20.211Z,21.75
2022-12-11T15:05:20.050Z,21.73
2022-12-11T15:06:19.985Z,21.73
2022-12-11T15:07:19.765Z,21.73
2022-12-11T15:08:19.697Z,21.75
2022-12-11T15:09:19.559Z,21.77
2022-12-11T15:10:19.461Z,21.77
2022-12-11T15:11:19.248Z,21.77
2022-12-11T15:12:19.133Z,21.77
2022-12-11T15:13:19.019Z,21.77
2022-12-11T15:14:18.999Z,21.77
2022-12-11T15:15:18.711Z,21.77
2022-12-11T15:16:18.639Z,21.77
2022-12-11T15:17:18.457Z,21.78
2022-12-11T15:18:18.367Z,21.80
2022-12-11T15:19:18.204Z,21.79
2022-12-11T15:20:18.187Z,21.79
2022-12-11T15:21:17.918Z,21.78
2022-12-11T15:22:17.827Z,21.80
2022-12-11T15:23:18.866Z,21.81
2022-12-11T15:24:17.574Z,21.81
2022-12-11T15:25:17.404Z,21.80
2022-12-11T15:26:17.304Z,21.82
2022-12-11T15:27:17.108Z,21.83
2022-12-11T15:28:17.066Z,21.83
2022-12-11T15:29:16.856Z,21.83
2022-12-11T15:30:16.900Z,21.83
2022-12-11T15:31:16.660Z,21.85
2022-12-11T15:32:16.573Z,21.85
2022-12-11T15:33:16.325Z,21.85
2022-12-11T15:34:16.350Z,21.86
2022-12-11T15:35:16.086Z,21.86
2022-12-11T15:36:15.987Z,21.86
2022-12-11T15:37:15.809Z,21.87
2022-12-11T15:38:15.722Z,21.87
2022-12-11T15:39:15.663Z,21.88
2022-12-11T15:40:15.456Z,21.88
2022-12-11T15:41:15.320Z,21.88
2022-12-11T15:42:15.222Z,21.88
2022-12-11T15:43:15.055Z,21.89
2022-12-11T15:44:14.955Z,21.88
2022-12-11T15:45:14.841Z,21.89
2022-12-11T15:46:14.757Z,21.91
2022-12-11T15:47:14.538Z,21.91
2022-12-11T15:48:14.433Z,21.90
2022-12-11T15:49:14.298Z,21.90
2022-12-11T15:50:14.462Z,21.91
2022-12-11T15:51:14.011Z,21.91
2022-12-11T15:52:13.962Z,21.91
2022-12-11T15:53:13.764Z,21.91
2022-12-11T15:54:13.635Z,21.93
2022-12-11T15:55:13.876Z,21.93
2022-12-11T15:56:13.427Z,21.93
2022-12-11T15:57:13.238Z,21.94
2022-12-11T15:58:13.158Z,21.94
2022-12-11T15:59:12.955Z,21.94
2022-12-11T16:00:12.841Z,21.93
2022-12-11T16:01:12.760Z,21.94
2022-12-11T16:02:12.770Z,21.95
2022-12-11T16:03:12.567Z,21.95
2022-12-11T16:04:12.339Z,21.96
2022-12-11T16:05:12.381Z,21.95
2022-12-11T16:06:12.091Z,21.96
2022-12-11T16:07:11.936Z,21.96
2022-12-11T16:08:11.823Z,21.97
2022-12-11T16:09:11.725Z,21.97
2022-12-11T16:10:11.541Z,21.97
2022-12-11T16:11:11.477Z,21.97
2022-12-11T16:12:11.258Z,21.99
2022-12-11T16:13:11.134Z,21.99
2022-12-11T16:14:11.080Z,21.98
2022-12-11T16:15:11.298Z,21.98
2022-12-11T16:16:10.920Z,21.98
2022-12-11T16:17:10.608Z,21.98
2022-12-11T16:18:10.490Z,21.95
2022-12-11T16:19:10.359Z,21.94
2022-12-11T16:20:10.235Z,21.93
2022-12-11T16:21:10.094Z,21.94
2022-12-11T16:22:09.983Z,21.94
2022-12-11T16:23:09.825Z,21.94
2022-12-11T16:24:09.708Z,21.94
2022-12-11T16:25:09.977Z,21.95
2022-12-11T16:26:09.443Z,21.97
2022-12-11T16:27:09.296Z,21.96
2022-12-11T16:28:09.241Z,21.97
2022-12-11T16:29:09.087Z,21.96
2022-12-11T16:30:09.007Z,21.97
2022-12-11T16:31:08.842Z,21.96
2022-12-11T16:32:08.685Z,21.97
2022-12-11T16:33:12.446Z,22.02
2022-12-11T16:34:08.408Z,22.04
2022-12-11T16:35:08.236Z,22.05
2022-12-11T16:36:08.164Z,22.05
2022-12-11T16:37:08.007Z,22.06
2022-12-11T16:38:07.869Z,22.06
2022-12-11T16:39:07.783Z,22.07
2022-12-11T16:40:12.627Z,22.08
2022-12-11T16:41:08.568Z,22.07
2022-12-11T16:42:07.292Z,22.07
2022-12-11T16:43:07.203Z,22.08
2022-12-11T16:44:07.011Z,22.09
2022-12-11T16:45:07.029Z,22.08
2022-12-11T16:46:06.775Z,22.08
2022-12-11T16:47:06.614Z,22.09
2022-12-11T16:48:06.459Z,22.10
2022-12-11T16:49:06.371Z,22.08
2022-12-11T16:50:06.195Z,22.08
2022-12-11T16:51:06.124Z,22.09
2022-12-11T16:52:05.930Z,22.07
2022-12-11T16:53:05.798Z,22.07
2022-12-11T16:54:05.638Z,22.05
2022-12-11T16:55:05.553Z,22.04
2022-12-11T16:56:05.380Z,22.04
2022-12-11T16:57:05.411Z,22.04
2022-12-11T16:58:05.116Z,22.04
2022-12-11T16:59:05.020Z,22.04
2022-12-11T17:00:04.833Z,22.04
2022-12-11T17:01:04.797Z,22.08
2022-12-11T17:02:04.586Z,22.10
2022-12-11T17:03:04.539Z,22.12
2022-12-11T17:04:04.287Z,22.12
2022-12-11T17:05:04.198Z,22.12
2022-12-11T17:06:04.051Z,22.14
2022-12-11T17:07:03.930Z,22.17
2022-12-11T17:08:03.798Z,22.19
2022-12-11T17:09:03.716Z,22.20
2022-12-11T17:10:03.560Z,22.22
2022-12-11T17:11:03.462Z,22.24
2022-12-11T17:12:03.225Z,22.26
2022-12-11T17:13:03.164Z,22.27
2022-12-11T17:14:02.932Z,22.29
2022-12-11T17:15:02.985Z,22.30
2022-12-11T17:16:02.702Z,22.31
2022-12-11T17:17:02.548Z,22.32
2022-12-11T17:18:02.397Z,22.34
2022-12-11T17:19:02.306Z,22.36
2022-12-11T17:20:02.192Z,22.37
2022-12-11T17:21:02.057Z,22.37
2022-12-11T17:22:01.843Z,22.38
2022-12-11T17:23:01.770Z,22.39
2022-12-11T17:24:01.711Z,22.40
2022-12-11T17:25:01.459Z,22.41
2022-12-11T17:26:01.769Z,22.41
2022-12-11T17:27:01.304Z,22.42
2022-12-11T17:28:01.005Z,22.43
2022-12-11T17:29:00.918Z,22.43
2022-12-11T17:30:00.759Z,22.43
2022-12-11T17:31:00.742Z,22.44
2022-12-11T17:32:00.471Z,22.42
2022-12-11T17:33:00.387Z,22.42
2022-12-11T17:34:00.179Z,22.40
2022-12-11T17:35:00.107Z,22.41
2022-12-11T17:35:59.961Z,22.40
2022-12-11T17:36:59.837Z,22.40
2022-12-11T17:37:59.661Z,22.39
2022-12-11T17:38:59.551Z,22.41
2022-12-11T17:39:59.400Z,22.41
2022-12-11T17:40:59.297Z,22.39
2022-12-11T17:41:59.225Z,22.40
2022-12-11T17:42:59.005Z,22.39
2022-12-11T17:43:58.884Z,22.39
2022-12-11T17:44:58.778Z,22.38
2022-12-11T17:45:58.628Z,22.37
2022-12-11T17:46:58.476Z,22.36
2022-12-11T17:47:58.306Z,22.36
2022-12-11T17:48:58.212Z,22.36
2022-12-11T17:49:58.029Z,22.37
2022-12-11T17:50:58.009Z,22.37
2022-12-11T17:51:57.857Z,22.37
2022-12-11T17:52:57.669Z,22.38
2022-12-11T17:53:57.486Z,22.38
2022-12-11T17:54:57.383Z,22.38
2022-12-11T17:55:57.302Z,22.38
2022-12-11T17:56:57.156Z,22.39
2022-12-11T17:57:56.941Z,22.44
2022-12-11T17:58:56.898Z,22.45
2022-12-11T17:59:56.817Z,22.46
2022-12-11T18:00:56.630Z,22.44
2022-12-11T18:01:56.528Z,22.46
2022-12-11T18:02:56.358Z,22.47
2022-12-11T18:03:56.256Z,22.48
2022-12-11T18:04:56.088Z,22.48
2022-12-11T18:05:55.979Z,22.48
2022-12-11T18:06:55.831Z,22.49
2022-12-11T18:07:57.960Z,22.44
2022-12-11T18:08:55.778Z,22.21
2022-12-11T18:09:55.631Z,21.95
2022-12-11T18:10:55.542Z,21.70
2022-12-11T18:11:55.497Z,21.42
2022-12-11T18:12:55.277Z,21.10
2022-12-11T18:13:55.167Z,20.84
2022-12-11T18:14:55.186Z,20.66
2022-12-11T18:15:54.975Z,20.51
2022-12-11T18:16:54.869Z,20.31
2022-12-11T18:17:54.748Z,20.23
2022-12-11T18:18:54.669Z,20.39
2022-12-11T18:20:03.151Z,20.57
2022-12-11T18:20:54.666Z,20.74
2022-12-11T18:21:54.567Z,20.90
2022-12-11T18:22:54.437Z,21.06
2022-12-11T18:23:54.521Z,21.18
2022-12-11T18:24:54.235Z,21.29
2022-12-11T18:25:54.101Z,21.37
2022-12-11T18:26:53.980Z,21.43
2022-12-11T18:27:53.933Z,21.47
2022-12-11T18:28:53.739Z,21.52
2022-12-11T18:29:53.674Z,21.54
2022-12-11T18:30:53.509Z,21.58
2022-12-11T18:31:53.404Z,21.62
2022-12-11T18:32:53.267Z,21.68
2022-12-11T18:33:53.118Z,21.70
2022-12-11T18:34:52.975Z,21.71
2022-12-11T18:35:52.867Z,21.71
2022-12-11T18:36:52.736Z,21.71
2022-12-11T18:37:52.743Z,21.73
2022-12-11T18:38:52.472Z,21.76
2022-12-11T18:39:52.579Z,21.79
2022-12-11T18:40:52.204Z,21.80
2022-12-11T18:42:23.901Z,21.81
2022-12-11T18:42:53.024Z,21.82
2022-12-11T18:43:51.800Z,21.83
2022-12-11T18:44:51.716Z,21.86
2022-12-11T18:45:51.572Z,21.91
2022-12-11T18:46:51.564Z,21.94
2022-12-11T18:47:51.296Z,21.98
2022-12-11T18:48:51.181Z,22.01
2022-12-11T18:49:52.069Z,22.04
2022-12-11T18:50:50.940Z,22.06
2022-12-11T18:51:50.748Z,22.10
2022-12-11T18:52:50.669Z,22.16
2022-12-11T18:53:50.540Z,22.19
